Aérodrome :







RETROUVEZ-NOUS SUR...

 
LOGIN :

S'inscrire | Disclaimer

   EN    FR    IT 

 









Légende :    VFR   VFR Marginal   IFR   IFR Intensif   IFR Très Intensif
Visi : 
Plafond : 
>= 8 km
>= 3000ft
5 à 8 km
1000 à 3000 ft
1500m à 5 km
500 à 1000 ft
800 à 1500m
200 à 500 ft
< 800m
< 200 ft
Symboles :   Orages  Brouillard  Fortes neiges  Fortes précipitations  Vent > 20 kt







- Altitude de l'aérodrome : 90 ft
- Code IATA : YHU


CYHU - Montréal Saint-Hubert

DERNIER METAR :
  • 230500Z AUTO 02012G17KT 9SM CLR 08/M01 A3013 RMK SLP203

METARs EXPIRÉS :
  • 230400Z AUTO 01013KT 9SM CLR 09/01 A3014 RMK SLP208
  • 230300Z AUTO 02011G17KT 9SM CLR 11/M02 A3015 RMK SLP210

TAF TAF CYHU
Valide du 23 à 06h jusqu'au 24 à 06h UTC


230538Z 2306/2406 02012G22KT P6SM SCT140
FM231200 03012G22KT P6SM SCT020 BKN100
FM231600 04012KT P6SM SCT030 BKN100
FM232100 07012KT P6SM BKN080
BECMG 2322/2324 07012G22KT
FM240100 07012G22KT P6SM -RA OVC050
PROB30 2402/2404 21/2SM SHRA BR
FM240400 07012KT 6SM -RA BR OVC030 RMK FCST BASED ON AUTO OBS. NXT FCST BY 231200Z
FIR CZUL / Amérique du Nord



MET'MAP, la Météo Aéronautique d'un coup d'oeil ! - Copyright ORBIFLY Décembre 2007 - Disclaimer

ORBIFLY MET'MAP TEAM :

Programmation & Développement : Alexandra Zaïnal
Conception & Développement : Baudouin d'Aumeries
Co-Programmation & Développement : Marc-Olivier Méhu
Soutien technique & logistique : Manuel Goepfert

Contact : metmap@orbifly.com




SOURCES & CREDITS :

   NOAA